sensor_id;sensor_type;location;lat;lon;timestamp;pressure;altitude;pressure_sealevel;temperature;humidity
11499;BME280;5806;48.748;9.278;2023-08-01T00:00:48;99366.41;;;17.18;100.00
11499;BME280;5806;48.748;9.278;2023-08-01T00:03:16;99358.53;;;17.23;100.00
11499;BME280;5806;48.748;9.278;2023-08-01T00:05:43;99362.19;;;17.21;100.00
11499;BME280;5806;48.748;9.278;2023-08-01T00:08:12;99363.86;;;17.30;100.00
11499;BME280;5806;48.748;9.278;2023-08-01T00:10:40;99366.87;;;17.31;100.00
11499;BME280;5806;48.748;9.278;2023-08-01T00:13:08;99364.33;;;17.24;100.00
11499;BME280;5806;48.748;9.278;2023-08-01T00:15:36;99356.13;;;17.30;100.00
11499;BME280;5806;48.748;9.278;2023-08-01T00:18:03;99347.09;;;17.27;100.00
11499;BME280;5806;48.748;9.278;2023-08-01T00:20:31;99353.29;;;17.32;100.00
11499;BME280;5806;48.748;9.278;2023-08-01T00:22:58;99348.59;;;17.33;100.00
11499;BME280;5806;48.748;9.278;2023-08-01T00:25:26;99338.48;;;17.28;100.00
11499;BME280;5806;48.748;9.278;2023-08-01T00:27:53;99341.83;;;17.28;100.00
11499;BME280;5806;48.748;9.278;2023-08-01T00:30:21;99331.97;;;17.24;100.00
11499;BME280;5806;48.748;9.278;2023-08-01T00:32:49;99324.19;;;17.26;100.00
11499;BME280;5806;48.748;9.278;2023-08-01T00:35:16;99337.06;;;17.39;100.00
11499;BME280;5806;48.748;9.278;2023-08-01T00:37:43;99337.19;;;17.45;100.00
11499;BME280;5806;48.748;9.278;2023-08-01T00:40:11;99328.73;;;17.31;100.00
11499;BME280;5806;48.748;9.278;2023-08-01T00:42:39;99315.78;;;17.40;100.00
11499;BME280;5806;48.748;9.278;2023-08-01T00:45:07;99317.59;;;17.44;100.00
11499;BME280;5806;48.748;9.278;2023-08-01T00:47:35;99312.06;;;17.44;100.00
11499;BME280;5806;48.748;9.278;2023-08-01T00:50:03;99303.70;;;17.27;100.00
11499;BME280;5806;48.748;9.278;2023-08-01T00:52:31;99311.00;;;17.43;100.00
11499;BME280;5806;48.748;9.278;2023-08-01T00:54:58;99315.07;;;17.45;100.00
11499;BME280;5806;48.748;9.278;2023-08-01T00:57:26;99304.02;;;17.45;100.00
11499;BME280;5806;48.748;9.278;2023-08-01T00:59:54;99299.66;;;17.53;100.00
11499;BME280;5806;48.748;9.278;2023-08-01T01:02:21;99277.36;;;17.41;100.00
11499;BME280;5806;48.748;9.278;2023-08-01T01:04:49;99256.99;;;17.37;100.00
11499;BME280;5806;48.748;9.278;2023-08-01T01:07:17;99258.17;;;17.44;100.00
11499;BME280;5806;48.748;9.278;2023-08-01T01:09:45;99265.98;;;17.42;100.00
11499;BME280;5806;48.748;9.278;2023-08-01T01:12:13;99258.61;;;17.38;100.00
11499;BME280;5806;48.748;9.278;2023-08-01T01:14:40;99257.87;;;17.35;100.00
11499;BME280;5806;48.748;9.278;2023-08-01T01:17:08;99250.09;;;17.37;100.00
11499;BME280;5806;48.748;9.278;2023-08-01T01:19:35;99234.70;;;17.33;100.00
11499;BME280;5806;48.748;9.278;2023-08-01T01:22:04;99235.05;;;17.32;100.00
11499;BME280;5806;48.748;9.278;2023-08-01T01:24:35;99242.34;;;17.36;100.00
11499;BME280;5806;48.748;9.278;2023-08-01T01:27:05;99241.77;;;17.48;100.00
11499;BME280;5806;48.748;9.278;2023-08-01T01:29:33;99237.89;;;17.38;100.00
11499;BME280;5806;48.748;9.278;2023-08-01T01:32:01;99235.97;;;17.47;100.00
11499;BME280;5806;48.748;9.278;2023-08-01T01:34:30;99228.30;;;17.35;100.00
11499;BME280;5806;48.748;9.278;2023-08-01T01:36:57;99227.34;;;17.40;100.00
11499;BME280;5806;48.748;9.278;2023-08-01T01:39:25;99222.21;;;17.36;100.00
11499;BME280;5806;48.748;9.278;2023-08-01T01:41:52;99223.59;;;17.36;100.00
11499;BME280;5806;48.748;9.278;2023-08-01T01:44:20;99191.44;;;17.20;100.00
11499;BME280;5806;48.748;9.278;2023-08-01T01:46:47;99233.20;;;17.47;100.00
11499;BME280;5806;48.748;9.278;2023-08-01T01:49:15;99236.96;;;17.42;100.00
11499;BME280;5806;48.748;9.278;2023-08-01T01:51:43;99220.45;;;17.48;100.00
11499;BME280;5806;48.748;9.278;2023-08-01T01:54:10;99229.38;;;17.45;100.00
11499;BME280;5806;48.748;9.278;2023-08-01T01:56:38;99224.13;;;17.46;100.00
11499;BME280;5806;48.748;9.278;2023-08-01T01:59:05;99220.22;;;17.47;100.00
11499;BME280;5806;48.748;9.278;2023-08-01T02:01:33;99242.35;;;17.56;100.00
11499;BME280;5806;48.748;9.278;2023-08-01T02:04:00;99240.06;;;17.58;100.00
11499;BME280;5806;48.748;9.278;2023-08-01T02:06:29;99245.83;;;17.59;100.00
11499;BME280;5806;48.748;9.278;2023-08-01T02:08:56;99240.47;;;17.54;100.00
11499;BME280;5806;48.748;9.278;2023-08-01T02:11:24;99237.22;;;17.52;100.00
11499;BME280;5806;48.748;9.278;2023-08-01T02:13:51;99245.59;;;17.58;100.00
11499;BME280;5806;48.748;9.278;2023-08-01T02:16:19;99233.72;;;17.49;100.00
11499;BME280;5806;48.748;9.278;2023-08-01T02:18:46;99234.75;;;17.42;100.00
11499;BME280;5806;48.748;9.278;2023-08-01T02:21:14;99234.52;;;17.41;100.00
11499;BME280;5806;48.748;9.278;2023-08-01T02:23:41;99234.44;;;17.43;100.00
11499;BME280;5806;48.748;9.278;2023-08-01T02:26:09;99233.53;;;17.45;100.00
11499;BME280;5806;48.748;9.278;2023-08-01T02:28:36;99231.99;;;17.42;100.00
11499;BME280;5806;48.748;9.278;2023-08-01T02:31:04;99231.80;;;17.38;100.00
11499;BME280;5806;48.748;9.278;2023-08-01T02:33:33;99234.12;;;17.45;100.00
11499;BME280;5806;48.748;9.278;2023-08-01T02:36:01;99235.58;;;17.42;100.00
11499;BME280;5806;48.748;9.278;2023-08-01T02:38:29;99237.28;;;17.41;100.00
11499;BME280;5806;48.748;9.278;2023-08-01T02:40:57;99242.03;;;17.38;100.00
11499;BME280;5806;48.748;9.278;2023-08-01T02:43:26;99255.10;;;17.35;100.00
11499;BME280;5806;48.748;9.278;2023-08-01T02:45:53;99248.23;;;17.15;100.00
11499;BME280;5806;48.748;9.278;2023-08-01T02:48:21;99243.22;;;17.17;100.00
11499;BME280;5806;48.748;9.278;2023-08-01T02:50:48;99240.62;;;17.21;100.00
11499;BME280;5806;48.748;9.278;2023-08-01T02:53:16;99237.45;;;17.25;100.00
11499;BME280;5806;48.748;9.278;2023-08-01T02:55:44;99240.58;;;17.12;100.00
11499;BME280;5806;48.748;9.278;2023-08-01T02:58:15;99238.25;;;17.17;100.00
11499;BME280;5806;48.748;9.278;2023-08-01T03:00:42;99247.09;;;17.08;100.00
11499;BME280;5806;48.748;9.278;2023-08-01T03:03:11;99244.92;;;17.16;100.00
11499;BME280;5806;48.748;9.278;2023-08-01T03:05:38;99250.33;;;17.10;100.00
11499;BME280;5806;48.748;9.278;2023-08-01T03:08:06;99253.80;;;17.04;100.00
11499;BME280;5806;48.748;9.278;2023-08-01T03:10:33;99247.64;;;17.07;100.00
11499;BME280;5806;48.748;9.278;2023-08-01T03:13:01;99250.72;;;17.06;100.00
11499;BME280;5806;48.748;9.278;2023-08-01T03:15:28;99251.19;;;16.99;100.00
11499;BME280;5806;48.748;9.278;2023-08-01T03:17:56;99259.44;;;17.10;100.00
11499;BME280;5806;48.748;9.278;2023-08-01T03:20:23;99255.93;;;17.07;100.00
11499;BME280;5806;48.748;9.278;2023-08-01T03:22:51;99260.91;;;17.08;100.00
11499;BME280;5806;48.748;9.278;2023-08-01T03:25:18;99269.35;;;17.11;100.00
11499;BME280;5806;48.748;9.278;2023-08-01T03:27:46;99265.77;;;17.11;100.00
11499;BME280;5806;48.748;9.278;2023-08-01T03:30:14;99268.20;;;17.04;100.00
11499;BME280;5806;48.748;9.278;2023-08-01T03:32:41;99272.82;;;17.06;100.00
11499;BME280;5806;48.748;9.278;2023-08-01T03:35:08;99268.91;;;17.07;100.00
11499;BME280;5806;48.748;9.278;2023-08-01T03:37:36;99272.11;;;17.11;100.00
11499;BME280;5806;48.748;9.278;2023-08-01T03:40:06;99281.02;;;17.00;100.00
11499;BME280;5806;48.748;9.278;2023-08-01T03:42:36;99283.95;;;17.03;100.00
11499;BME280;5806;48.748;9.278;2023-08-01T03:45:04;99278.97;;;17.03;100.00
11499;BME280;5806;48.748;9.278;2023-08-01T03:47:32;99281.94;;;17.06;100.00
11499;BME280;5806;48.748;9.278;2023-08-01T03:50:00;99280.43;;;17.00;100.00
11499;BME280;5806;48.748;9.278;2023-08-01T03:52:27;99288.64;;;17.03;100.00
11499;BME280;5806;48.748;9.278;2023-08-01T03:54:55;99292.28;;;17.12;100.00
11499;BME280;5806;48.748;9.278;2023-08-01T03:57:23;99298.51;;;17.06;100.00
11499;BME280;5806;48.748;9.278;2023-08-01T03:59:50;99298.97;;;17.00;100.00
11499;BME280;5806;48.748;9.278;2023-08-01T04:02:18;99300.80;;;17.13;100.00
11499;BME280;5806;48.748;9.278;2023-08-01T04:04:45;99303.28;;;17.03;100.00
11499;BME280;5806;48.748;9.278;2023-08-01T04:07:13;99304.34;;;17.05;100.00
11499;BME280;5806;48.748;9.278;2023-08-01T04:09:40;99305.56;;;17.01;100.00
11499;BME280;5806;48.748;9.278;2023-08-01T04:12:08;99308.80;;;16.84;99.46
11499;BME280;5806;48.748;9.278;2023-08-01T04:14:36;99307.59;;;16.87;100.00
11499;BME280;5806;48.748;9.278;2023-08-01T04:17:03;99309.28;;;16.86;100.00
11499;BME280;5806;48.748;9.278;2023-08-01T04:19:31;99307.96;;;16.94;99.78
11499;BME280;5806;48.748;9.278;2023-08-01T04:21:58;99308.88;;;16.81;98.00
11499;BME280;5806;48.748;9.278;2023-08-01T04:24:26;99313.33;;;16.80;98.19
11499;BME280;5806;48.748;9.278;2023-08-01T04:26:54;99311.30;;;16.83;98.61
11499;BME280;5806;48.748;9.278;2023-08-01T04:29:21;99312.43;;;16.82;98.03
11499;BME280;5806;48.748;9.278;2023-08-01T04:31:49;99315.09;;;16.76;97.56
11499;BME280;5806;48.748;9.278;2023-08-01T04:34:16;99318.62;;;16.68;97.95
11499;BME280;5806;48.748;9.278;2023-08-01T04:36:44;99308.27;;;16.73;98.56
11499;BME280;5806;48.748;9.278;2023-08-01T04:39:11;99320.14;;;16.63;97.64
11499;BME280;5806;48.748;9.278;2023-08-01T04:41:39;99320.00;;;16.68;97.75
11499;BME280;5806;48.748;9.278;2023-08-01T04:44:06;99326.70;;;16.64;98.12
11499;BME280;5806;48.748;9.278;2023-08-01T04:46:34;99329.91;;;16.58;97.86
11499;BME280;5806;48.748;9.278;2023-08-01T04:49:01;99329.28;;;16.61;97.06
11499;BME280;5806;48.748;9.278;2023-08-01T04:51:29;99329.36;;;16.58;95.23
11499;BME280;5806;48.748;9.278;2023-08-01T04:53:56;99339.84;;;16.59;96.31
11499;BME280;5806;48.748;9.278;2023-08-01T04:56:24;99337.26;;;16.51;96.66
11499;BME280;5806;48.748;9.278;2023-08-01T04:58:51;99336.88;;;16.55;96.29
11499;BME280;5806;48.748;9.278;2023-08-01T05:01:19;99337.02;;;16.61;95.98
11499;BME280;5806;48.748;9.278;2023-08-01T05:03:46;99342.33;;;16.58;95.43
11499;BME280;5806;48.748;9.278;2023-08-01T05:06:14;99343.92;;;16.61;95.50
11499;BME280;5806;48.748;9.278;2023-08-01T05:08:42;99343.84;;;16.64;96.64
11499;BME280;5806;48.748;9.278;2023-08-01T05:11:09;99348.61;;;16.50;96.64
11499;BME280;5806;48.748;9.278;2023-08-01T05:13:37;99351.88;;;16.52;96.85
11499;BME280;5806;48.748;9.278;2023-08-01T05:16:04;99350.88;;;16.59;97.19
11499;BME280;5806;48.748;9.278;2023-08-01T05:18:32;99347.85;;;16.58;96.93
11499;BME280;5806;48.748;9.278;2023-08-01T05:20:59;99343.53;;;16.54;95.65
11499;BME280;5806;48.748;9.278;2023-08-01T05:23:26;99339.57;;;16.58;97.31
11499;BME280;5806;48.748;9.278;2023-08-01T05:25:54;99343.02;;;16.52;95.40
11499;BME280;5806;48.748;9.278;2023-08-01T05:28:21;99339.91;;;16.45;97.38
11499;BME280;5806;48.748;9.278;2023-08-01T05:30:49;99348.58;;;16.28;94.73
11499;BME280;5806;48.748;9.278;2023-08-01T05:33:16;99347.30;;;16.47;95.43
11499;BME280;5806;48.748;9.278;2023-08-01T05:35:43;99349.81;;;16.46;96.21
11499;BME280;5806;48.748;9.278;2023-08-01T05:38:11;99348.25;;;16.40;96.17
11499;BME280;5806;48.748;9.278;2023-08-01T05:40:38;99352.12;;;16.42;95.86
11499;BME280;5806;48.748;9.278;2023-08-01T05:43:06;99360.95;;;16.52;96.73
11499;BME280;5806;48.748;9.278;2023-08-01T05:45:35;99367.48;;;16.56;96.38
11499;BME280;5806;48.748;9.278;2023-08-01T05:48:03;99374.83;;;16.50;94.83
11499;BME280;5806;48.748;9.278;2023-08-01T05:50:30;99379.24;;;16.51;94.80
11499;BME280;5806;48.748;9.278;2023-08-01T05:52:58;99383.69;;;16.49;94.37
11499;BME280;5806;48.748;9.278;2023-08-01T05:55:25;99384.11;;;16.54;94.39
11499;BME280;5806;48.748;9.278;2023-08-01T05:57:53;99392.29;;;16.59;95.13
11499;BME280;5806;48.748;9.278;2023-08-01T06:00:21;99401.06;;;16.61;95.52
11499;BME280;5806;48.748;9.278;2023-08-01T06:02:48;99405.25;;;16.47;96.67
11499;BME280;5806;48.748;9.278;2023-08-01T06:05:16;99404.19;;;16.57;96.07
11499;BME280;5806;48.748;9.278;2023-08-01T06:07:43;99402.64;;;16.53;93.36
11499;BME280;5806;48.748;9.278;2023-08-01T06:10:11;99406.27;;;16.62;94.85
11499;BME280;5806;48.748;9.278;2023-08-01T06:12:38;99400.30;;;16.58;94.42
11499;BME280;5806;48.748;9.278;2023-08-01T06:15:06;99403.25;;;16.50;93.56
11499;BME280;5806;48.748;9.278;2023-08-01T06:17:33;99403.80;;;16.50;91.44
11499;BME280;5806;48.748;9.278;2023-08-01T06:20:01;99389.33;;;16.66;91.48
11499;BME280;5806;48.748;9.278;2023-08-01T06:22:30;99389.95;;;16.63;92.57
11499;BME280;5806;48.748;9.278;2023-08-01T06:24:57;99398.05;;;16.60;90.35
11499;BME280;5806;48.748;9.278;2023-08-01T06:27:25;99394.92;;;16.64;92.78
11499;BME280;5806;48.748;9.278;2023-08-01T06:29:52;99388.19;;;16.67;91.56
11499;BME280;5806;48.748;9.278;2023-08-01T06:32:20;99394.02;;;16.66;91.46
11499;BME280;5806;48.748;9.278;2023-08-01T06:34:47;99403.00;;;16.71;89.96
11499;BME280;5806;48.748;9.278;2023-08-01T06:37:15;99401.95;;;16.59;91.86
11499;BME280;5806;48.748;9.278;2023-08-01T06:39:42;99396.92;;;16.61;91.79
11499;BME280;5806;48.748;9.278;2023-08-01T06:42:09;99398.91;;;16.58;90.46
11499;BME280;5806;48.748;9.278;2023-08-01T06:44:37;99395.78;;;16.62;91.61
11499;BME280;5806;48.748;9.278;2023-08-01T06:47:04;99401.23;;;16.64;90.52
11499;BME280;5806;48.748;9.278;2023-08-01T06:49:32;99407.13;;;16.60;90.73
11499;BME280;5806;48.748;9.278;2023-08-01T06:51:59;99413.17;;;16.62;89.59
11499;BME280;5806;48.748;9.278;2023-08-01T06:54:27;99409.91;;;16.71;91.81
11499;BME280;5806;48.748;9.278;2023-08-01T06:56:54;99409.67;;;16.81;91.23
11499;BME280;5806;48.748;9.278;2023-08-01T06:59:22;99406.14;;;16.78;90.55
11499;BME280;5806;48.748;9.278;2023-08-01T07:01:49;99407.70;;;16.82;91.42
11499;BME280;5806;48.748;9.278;2023-08-01T07:04:16;99406.77;;;16.86;88.73
11499;BME280;5806;48.748;9.278;2023-08-01T07:06:44;99411.16;;;16.87;89.19
11499;BME280;5806;48.748;9.278;2023-08-01T07:09:11;99407.32;;;16.86;88.53
11499;BME280;5806;48.748;9.278;2023-08-01T07:11:39;99418.30;;;16.99;88.91
11499;BME280;5806;48.748;9.278;2023-08-01T07:14:06;99409.19;;;16.99;89.37
11499;BME280;5806;48.748;9.278;2023-08-01T07:16:34;99408.39;;;16.87;90.25
11499;BME280;5806;48.748;9.278;2023-08-01T07:19:02;99417.85;;;16.95;89.17
11499;BME280;5806;48.748;9.278;2023-08-01T07:21:29;99411.22;;;16.96;89.16
11499;BME280;5806;48.748;9.278;2023-08-01T07:23:56;99412.29;;;16.97;89.91
11499;BME280;5806;48.748;9.278;2023-08-01T07:26:24;99422.52;;;16.97;87.71
11499;BME280;5806;48.748;9.278;2023-08-01T07:28:51;99428.89;;;17.06;89.22
11499;BME280;5806;48.748;9.278;2023-08-01T07:31:19;99428.48;;;17.01;88.18
11499;BME280;5806;48.748;9.278;2023-08-01T07:33:46;99430.34;;;17.03;86.04
11499;BME280;5806;48.748;9.278;2023-08-01T07:36:14;99433.73;;;17.00;85.97
11499;BME280;5806;48.748;9.278;2023-08-01T07:38:41;99428.80;;;17.00;85.75
11499;BME280;5806;48.748;9.278;2023-08-01T07:41:08;99429.17;;;16.96;85.64
11499;BME280;5806;48.748;9.278;2023-08-01T07:43:36;99432.18;;;16.97;84.98
11499;BME280;5806;48.748;9.278;2023-08-01T07:46:03;99443.09;;;17.13;85.78
11499;BME280;5806;48.748;9.278;2023-08-01T07:48:31;99437.25;;;17.14;84.14
11499;BME280;5806;48.748;9.278;2023-08-01T07:50:59;99440.80;;;17.26;83.57
11499;BME280;5806;48.748;9.278;2023-08-01T07:53:27;99433.29;;;17.37;84.80
11499;BME280;5806;48.748;9.278;2023-08-01T07:55:55;99437.14;;;17.50;83.56
11499;BME280;5806;48.748;9.278;2023-08-01T07:58:23;99439.90;;;17.50;82.94
11499;BME280;5806;48.748;9.278;2023-08-01T08:00:50;99436.27;;;17.52;81.96
11499;BME280;5806;48.748;9.278;2023-08-01T08:03:18;99437.28;;;17.45;84.42
11499;BME280;5806;48.748;9.278;2023-08-01T08:05:47;99435.81;;;17.36;84.61
11499;BME280;5806;48.748;9.278;2023-08-01T08:08:15;99442.41;;;17.38;84.66
11499;BME280;5806;48.748;9.278;2023-08-01T08:10:42;99441.97;;;17.33;82.63
11499;BME280;5806;48.748;9.278;2023-08-01T08:13:09;99444.48;;;17.32;84.94
11499;BME280;5806;48.748;9.278;2023-08-01T08:15:37;99445.88;;;17.32;82.57
11499;BME280;5806;48.748;9.278;2023-08-01T08:18:04;99443.63;;;17.34;82.98
11499;BME280;5806;48.748;9.278;2023-08-01T08:20:34;99450.34;;;17.42;80.44
11499;BME280;5806;48.748;9.278;2023-08-01T08:23:01;99449.43;;;17.55;81.57
11499;BME280;5806;48.748;9.278;2023-08-01T08:25:28;99446.19;;;17.53;83.18
11499;BME280;5806;48.748;9.278;2023-08-01T08:27:56;99454.86;;;17.49;80.09
11499;BME280;5806;48.748;9.278;2023-08-01T08:30:23;99451.08;;;17.56;80.18
11499;BME280;5806;48.748;9.278;2023-08-01T08:32:50;99453.55;;;17.66;78.60
11499;BME280;5806;48.748;9.278;2023-08-01T08:35:18;99451.47;;;17.71;79.21
11499;BME280;5806;48.748;9.278;2023-08-01T08:37:45;99455.33;;;17.62;78.58
11499;BME280;5806;48.748;9.278;2023-08-01T08:40:13;99453.40;;;17.71;78.08
11499;BME280;5806;48.748;9.278;2023-08-01T08:42:41;99456.21;;;17.79;76.85
11499;BME280;5806;48.748;9.278;2023-08-01T08:45:10;99452.98;;;17.86;77.76
11499;BME280;5806;48.748;9.278;2023-08-01T08:47:41;99449.61;;;17.78;76.55
11499;BME280;5806;48.748;9.278;2023-08-01T08:50:09;99450.75;;;17.77;75.82
11499;BME280;5806;48.748;9.278;2023-08-01T08:52:38;99460.98;;;17.68;77.10
11499;BME280;5806;48.748;9.278;2023-08-01T08:55:06;99456.99;;;17.71;75.07
11499;BME280;5806;48.748;9.278;2023-08-01T08:57:34;99470.05;;;17.79;73.75
11499;BME280;5806;48.748;9.278;2023-08-01T09:00:03;99460.72;;;17.86;72.23
11499;BME280;5806;48.748;9.278;2023-08-01T09:02:33;99454.40;;;17.94;74.08
11499;BME280;5806;48.748;9.278;2023-08-01T09:05:00;99455.08;;;18.08;74.56
11499;BME280;5806;48.748;9.278;2023-08-01T09:07:29;99454.59;;;18.15;72.69
11499;BME280;5806;48.748;9.278;2023-08-01T09:09:57;99466.02;;;18.22;73.45
11499;BME280;5806;48.748;9.278;2023-08-01T09:12:25;99451.83;;;18.15;73.03
11499;BME280;5806;48.748;9.278;2023-08-01T09:14:56;99456.70;;;18.09;72.83
11499;BME280;5806;48.748;9.278;2023-08-01T09:17:23;99470.72;;;18.13;72.74
11499;BME280;5806;48.748;9.278;2023-08-01T09:19:56;99470.64;;;18.15;73.41
11499;BME280;5806;48.748;9.278;2023-08-01T09:22:24;99481.00;;;18.21;74.28
11499;BME280;5806;48.748;9.278;2023-08-01T09:24:54;99476.84;;;18.21;72.44
11499;BME280;5806;48.748;9.278;2023-08-01T09:27:22;99478.31;;;18.18;72.97
11499;BME280;5806;48.748;9.278;2023-08-01T09:29:49;99479.27;;;18.42;71.17
11499;BME280;5806;48.748;9.278;2023-08-01T09:32:17;99474.39;;;18.56;70.57
11499;BME280;5806;48.748;9.278;2023-08-01T09:34:45;99475.53;;;18.55;72.17
11499;BME280;5806;48.748;9.278;2023-08-01T09:37:12;99470.89;;;18.44;73.29
11499;BME280;5806;48.748;9.278;2023-08-01T09:39:39;99475.84;;;18.36;73.01
11499;BME280;5806;48.748;9.278;2023-08-01T09:42:08;99474.54;;;18.34;72.76
11499;BME280;5806;48.748;9.278;2023-08-01T09:44:36;99484.06;;;18.39;73.55
11499;BME280;5806;48.748;9.278;2023-08-01T09:47:04;99475.20;;;18.39;70.75
11499;BME280;5806;48.748;9.278;2023-08-01T09:49:35;99486.14;;;18.53;71.69
11499;BME280;5806;48.748;9.278;2023-08-01T09:52:03;99487.70;;;18.65;68.77
11499;BME280;5806;48.748;9.278;2023-08-01T09:54:32;99488.51;;;18.74;67.54
11499;BME280;5806;48.748;9.278;2023-08-01T09:57:01;99491.69;;;18.70;69.15
11499;BME280;5806;48.748;9.278;2023-08-01T09:59:30;99488.17;;;18.84;68.58
11499;BME280;5806;48.748;9.278;2023-08-01T10:01:58;99488.84;;;18.98;68.72
11499;BME280;5806;48.748;9.278;2023-08-01T10:04:33;99482.72;;;18.90;69.44
11499;BME280;5806;48.748;9.278;2023-08-01T10:07:11;99482.55;;;18.95;69.60
11499;BME280;5806;48.748;9.278;2023-08-01T10:09:33;99482.55;;;18.95;69.60
11499;BME280;5806;48.748;9.278;2023-08-01T10:12:05;99481.90;;;18.89;69.34
11499;BME280;5806;48.748;9.278;2023-08-01T10:14:33;99472.11;;;18.66;69.64
11499;BME280;5806;48.748;9.278;2023-08-01T10:17:02;99475.79;;;18.81;70.23
11499;BME280;5806;48.748;9.278;2023-08-01T10:19:32;99488.03;;;18.89;67.18
11499;BME280;5806;48.748;9.278;2023-08-01T10:21:59;99477.68;;;18.83;68.57
11499;BME280;5806;48.748;9.278;2023-08-01T10:24:28;99479.30;;;18.84;68.57
11499;BME280;5806;48.748;9.278;2023-08-01T10:26:57;99473.44;;;18.86;69.43
11499;BME280;5806;48.748;9.278;2023-08-01T10:29:35;99470.26;;;18.90;70.40
11499;BME280;5806;48.748;9.278;2023-08-01T10:32:03;99470.94;;;19.18;68.02
11499;BME280;5806;48.748;9.278;2023-08-01T10:34:32;99471.20;;;19.19;68.81
11499;BME280;5806;48.748;9.278;2023-08-01T10:37:00;99475.59;;;19.29;66.95
11499;BME280;5806;48.748;9.278;2023-08-01T10:39:28;99476.28;;;19.26;65.71
11499;BME280;5806;48.748;9.278;2023-08-01T10:42:00;99476.02;;;19.25;66.01
11499;BME280;5806;48.748;9.278;2023-08-01T10:44:28;99482.70;;;19.24;66.23
11499;BME280;5806;48.748;9.278;2023-08-01T10:47:04;99477.75;;;19.24;66.69
11499;BME280;5806;48.748;9.278;2023-08-01T10:49:43;99478.17;;;19.51;65.22
11499;BME280;5806;48.748;9.278;2023-08-01T10:52:19;99474.17;;;19.69;65.50
11499;BME280;5806;48.748;9.278;2023-08-01T10:54:57;99470.23;;;19.79;65.52
11499;BME280;5806;48.748;9.278;2023-08-01T10:57:31;99468.94;;;19.76;64.13
11499;BME280;5806;48.748;9.278;2023-08-01T10:59:59;99467.85;;;19.83;64.51
11499;BME280;5806;48.748;9.278;2023-08-01T11:02:28;99465.65;;;19.97;64.65
11499;BME280;5806;48.748;9.278;2023-08-01T11:05:04;99479.06;;;19.95;63.44
11499;BME280;5806;48.748;9.278;2023-08-01T11:07:33;99472.06;;;19.52;65.40
11499;BME280;5806;48.748;9.278;2023-08-01T11:10:08;99469.41;;;19.64;65.24
11499;BME280;5806;48.748;9.278;2023-08-01T11:12:41;99469.41;;;19.64;65.24
11499;BME280;5806;48.748;9.278;2023-08-01T11:15:11;99482.91;;;19.74;65.80
11499;BME280;5806;48.748;9.278;2023-08-01T11:17:40;99474.05;;;20.03;60.46
11499;BME280;5806;48.748;9.278;2023-08-01T11:20:12;99475.13;;;19.96;60.26
11499;BME280;5806;48.748;9.278;2023-08-01T11:22:51;99476.74;;;20.35;58.82
11499;BME280;5806;48.748;9.278;2023-08-01T11:25:19;99472.95;;;20.54;59.93
11499;BME280;5806;48.748;9.278;2023-08-01T11:27:47;99472.95;;;20.54;59.93
11499;BME280;5806;48.748;9.278;2023-08-01T11:30:15;99480.76;;;20.66;56.60
11499;BME280;5806;48.748;9.278;2023-08-01T11:32:42;99478.73;;;20.34;58.57
11499;BME280;5806;48.748;9.278;2023-08-01T11:35:16;99479.33;;;20.25;59.54
11499;BME280;5806;48.748;9.278;2023-08-01T11:37:40;99477.42;;;20.46;60.54
11499;BME280;5806;48.748;9.278;2023-08-01T11:40:08;99486.22;;;20.48;60.22
11499;BME280;5806;48.748;9.278;2023-08-01T11:42:35;99486.22;;;20.48;60.22
11499;BME280;5806;48.748;9.278;2023-08-01T11:45:12;99482.80;;;20.57;60.55
11499;BME280;5806;48.748;9.278;2023-08-01T11:47:47;99487.45;;;20.59;56.54
11499;BME280;5806;48.748;9.278;2023-08-01T11:50:23;99488.66;;;20.50;57.25
11499;BME280;5806;48.748;9.278;2023-08-01T11:52:51;99477.51;;;20.29;58.06
11499;BME280;5806;48.748;9.278;2023-08-01T11:55:25;99481.13;;;20.65;56.73
11499;BME280;5806;48.748;9.278;2023-08-01T11:57:56;99482.02;;;20.63;57.43
11499;BME280;5806;48.748;9.278;2023-08-01T12:00:28;99487.97;;;20.67;55.80
11499;BME280;5806;48.748;9.278;2023-08-01T12:03:09;99486.47;;;20.70;55.55
11499;BME280;5806;48.748;9.278;2023-08-01T12:05:40;99480.05;;;20.84;54.73
11499;BME280;5806;48.748;9.278;2023-08-01T12:08:11;99484.38;;;20.87;53.89
11499;BME280;5806;48.748;9.278;2023-08-01T12:10:40;99482.87;;;20.49;55.35
11499;BME280;5806;48.748;9.278;2023-08-01T12:13:25;99489.77;;;20.28;57.41
11499;BME280;5806;48.748;9.278;2023-08-01T12:15:55;99496.48;;;20.13;57.12
11499;BME280;5806;48.748;9.278;2023-08-01T12:18:29;99502.77;;;20.07;57.33
11499;BME280;5806;48.748;9.278;2023-08-01T12:20:56;99511.11;;;19.99;58.74
11499;BME280;5806;48.748;9.278;2023-08-01T12:23:23;99508.20;;;19.95;58.24
11499;BME280;5806;48.748;9.278;2023-08-01T12:25:51;99507.66;;;19.87;60.25
11499;BME280;5806;48.748;9.278;2023-08-01T12:28:18;99504.15;;;20.07;59.05
11499;BME280;5806;48.748;9.278;2023-08-01T12:30:45;99501.83;;;20.32;59.27
11499;BME280;5806;48.748;9.278;2023-08-01T12:33:13;99498.87;;;20.72;58.61
11499;BME280;5806;48.748;9.278;2023-08-01T12:35:41;99501.93;;;20.79;58.27
11499;BME280;5806;48.748;9.278;2023-08-01T12:38:09;99507.07;;;20.89;57.15
11499;BME280;5806;48.748;9.278;2023-08-01T12:40:37;99509.75;;;20.71;62.77
11499;BME280;5806;48.748;9.278;2023-08-01T12:43:04;99512.08;;;20.11;63.39
11499;BME280;5806;48.748;9.278;2023-08-01T12:45:31;99514.91;;;19.63;64.29
11499;BME280;5806;48.748;9.278;2023-08-01T12:47:59;99522.17;;;19.30;64.61
11499;BME280;5806;48.748;9.278;2023-08-01T12:50:26;99536.34;;;19.19;67.30
11499;BME280;5806;48.748;9.278;2023-08-01T12:52:54;99561.70;;;19.15;70.20
11499;BME280;5806;48.748;9.278;2023-08-01T12:55:22;99570.84;;;19.07;72.10
11499;BME280;5806;48.748;9.278;2023-08-01T12:57:49;99587.72;;;18.72;78.64
11499;BME280;5806;48.748;9.278;2023-08-01T13:00:17;99576.41;;;18.34;82.20
11499;BME280;5806;48.748;9.278;2023-08-01T13:02:45;99571.39;;;18.45;84.52
11499;BME280;5806;48.748;9.278;2023-08-01T13:05:13;99571.47;;;18.42;86.10
11499;BME280;5806;48.748;9.278;2023-08-01T13:07:41;99559.52;;;18.61;86.04
11499;BME280;5806;48.748;9.278;2023-08-01T13:10:08;99568.92;;;18.80;83.46
11499;BME280;5806;48.748;9.278;2023-08-01T13:12:36;99560.88;;;18.81;86.91